createdAt,value
2017-11-08T00:00:57.792Z,22.63
2017-11-08T00:03:25.272Z,21.13
2017-11-08T00:05:53.553Z,21.57
2017-11-08T00:08:21.037Z,20.17
2017-11-08T00:10:49.342Z,20.67
2017-11-08T00:13:16.864Z,20.33
2017-11-08T00:15:46.178Z,20.13
2017-11-08T00:18:13.689Z,19.13
2017-11-08T00:20:41.185Z,20.70
2017-11-08T00:23:08.715Z,22.70
2017-11-08T00:25:36.997Z,21.37
2017-11-08T00:28:04.496Z,20.37
2017-11-08T00:30:32.009Z,20.00
2017-11-08T00:32:59.544Z,19.47
2017-11-08T00:35:27.035Z,20.00
2017-11-08T00:37:54.589Z,21.33
2017-11-08T00:40:22.103Z,20.30
2017-11-08T00:42:49.613Z,19.93
2017-11-08T00:45:17.856Z,18.73
2017-11-08T00:47:45.394Z,19.87
2017-11-08T00:50:12.903Z,20.27
2017-11-08T00:52:40.446Z,19.53
2017-11-08T00:55:07.960Z,22.40
2017-11-08T00:57:37.273Z,22.50
2017-11-08T01:00:07.536Z,19.57
2017-11-08T01:02:35.817Z,20.40
2017-11-08T01:05:04.090Z,20.27
2017-11-08T01:07:31.580Z,18.90
2017-11-08T01:09:59.140Z,20.97
2017-11-08T01:12:26.634Z,19.80
2017-11-08T01:14:54.120Z,19.50
2017-11-08T01:17:21.661Z,19.47
2017-11-08T01:19:49.944Z,22.00
2017-11-08T01:22:17.454Z,21.07
2017-11-08T01:24:45.725Z,20.00
2017-11-08T01:27:13.238Z,18.50
2017-11-08T01:29:40.764Z,20.80
2017-11-08T01:32:08.256Z,20.37
2017-11-08T01:34:35.785Z,19.90
2017-11-08T01:37:08.932Z,20.20
2017-11-08T01:39:40.273Z,19.20
2017-11-08T01:42:10.634Z,19.03
2017-11-08T01:44:44.024Z,20.80
2017-11-08T01:47:11.537Z,20.30
2017-11-08T01:49:39.024Z,17.97
2017-11-08T01:52:11.436Z,21.07
2017-11-08T01:54:39.707Z,20.63
2017-11-08T01:57:07.245Z,19.40
2017-11-08T01:59:35.144Z,19.00
2017-11-08T02:02:02.659Z,18.77
2017-11-08T02:04:30.171Z,21.17
2017-11-08T02:06:57.696Z,21.63
2017-11-08T02:09:25.945Z,19.43
2017-11-08T02:11:53.454Z,20.33
2017-11-08T02:14:21.002Z,20.17
2017-11-08T02:16:48.511Z,17.80
2017-11-08T02:19:16.817Z,20.80
2017-11-08T02:21:44.304Z,22.10
2017-11-08T02:24:11.813Z,18.00
2017-11-08T02:26:39.317Z,21.40
2017-11-08T02:29:06.805Z,20.50
2017-11-08T02:31:34.330Z,18.27
2017-11-08T02:34:05.510Z,21.43
2017-11-08T02:36:33.050Z,18.40
2017-11-08T02:39:00.527Z,19.83
2017-11-08T02:41:29.171Z,21.27
2017-11-08T02:43:56.720Z,21.13
2017-11-08T02:46:26.021Z,20.90
2017-11-08T02:48:54.280Z,23.90
2017-11-08T02:51:21.802Z,23.23
2017-11-08T02:53:54.277Z,22.77
2017-11-08T02:56:21.797Z,21.03
2017-11-08T02:58:49.318Z,21.50
2017-11-08T03:01:17.635Z,22.97
2017-11-08T03:03:45.908Z,22.20
2017-11-08T03:06:13.441Z,22.43
2017-11-08T03:08:40.928Z,21.97
2017-11-08T03:11:09.202Z,22.80
2017-11-08T03:13:36.720Z,23.17
2017-11-08T03:16:04.212Z,23.20
2017-11-08T03:18:31.748Z,26.37
2017-11-08T03:20:59.237Z,25.13
2017-11-08T03:23:26.762Z,30.87
2017-11-08T03:25:55.018Z,27.80
2017-11-08T03:28:22.506Z,34.33
2017-11-08T03:30:50.021Z,34.70
2017-11-08T03:33:17.519Z,28.10
2017-11-08T03:35:45.008Z,25.37
2017-11-08T03:38:12.522Z,29.27
2017-11-08T03:40:40.801Z,30.40
2017-11-08T03:43:09.059Z,29.33
2017-11-08T03:45:36.580Z,29.30
2017-11-08T03:48:04.069Z,36.07
2017-11-08T03:50:31.576Z,35.00
2017-11-08T03:52:59.093Z,36.17
2017-11-08T03:55:26.584Z,33.80
2017-11-08T03:57:54.072Z,36.80
2017-11-08T04:00:21.586Z,35.77
2017-11-08T04:02:49.836Z,36.77
2017-11-08T04:05:18.133Z,38.80
2017-11-08T04:07:45.616Z,36.77
2017-11-08T04:10:13.101Z,31.97
2017-11-08T04:12:41.377Z,33.03
2017-11-08T04:15:10.517Z,32.40
2017-11-08T04:17:38.005Z,36.13
2017-11-08T04:20:05.496Z,30.23
2017-11-08T04:22:33.014Z,31.27
2017-11-08T04:25:01.292Z,30.77
2017-11-08T04:27:28.812Z,33.17
2017-11-08T04:29:56.295Z,37.17
2017-11-08T04:32:23.820Z,29.87
2017-11-08T04:34:52.069Z,33.10
2017-11-08T04:37:19.557Z,33.13
2017-11-08T04:39:47.062Z,30.60
2017-11-08T04:42:14.549Z,31.50
2017-11-08T04:44:42.076Z,33.47
2017-11-08T04:47:09.568Z,31.07
2017-11-08T04:49:37.065Z,33.50
2017-11-08T04:52:04.575Z,33.10
2017-11-08T04:54:32.115Z,32.53
2017-11-08T04:56:59.596Z,30.73
2017-11-08T04:59:27.086Z,31.47
2017-11-08T05:01:54.596Z,32.03
2017-11-08T05:04:22.085Z,31.77
2017-11-08T05:06:49.601Z,30.73
2017-11-08T05:09:17.093Z,30.17
2017-11-08T05:11:45.372Z,31.67
2017-11-08T05:14:13.619Z,28.80
2017-11-08T05:16:41.111Z,29.43
2017-11-08T05:19:08.629Z,27.87
2017-11-08T05:21:36.116Z,30.83
2017-11-08T05:24:03.603Z,29.87
2017-11-08T05:26:31.128Z,31.77
2017-11-08T05:28:58.648Z,33.30
2017-11-08T05:31:26.142Z,28.50
2017-11-08T05:33:53.667Z,31.50
2017-11-08T05:36:21.157Z,29.97
2017-11-08T05:38:48.641Z,27.90
2017-11-08T05:41:16.177Z,29.80
2017-11-08T05:43:43.673Z,29.00
2017-11-08T05:46:11.167Z,30.60
2017-11-08T05:48:38.684Z,30.47
2017-11-08T05:51:06.179Z,29.63
2017-11-08T05:53:33.717Z,27.10
2017-11-08T05:56:01.600Z,29.07
2017-11-08T05:58:29.145Z,31.30
2017-11-08T06:00:56.661Z,30.80
2017-11-08T06:03:24.157Z,30.43
2017-11-08T06:05:51.665Z,34.20
2017-11-08T06:08:19.932Z,29.73
2017-11-08T06:10:48.190Z,29.07
2017-11-08T06:13:15.798Z,31.50
2017-11-08T06:15:43.276Z,28.90
2017-11-08T06:18:10.769Z,31.23
2017-11-08T06:20:38.323Z,26.90
2017-11-08T06:23:06.581Z,31.00
2017-11-08T06:25:34.132Z,29.57
2017-11-08T06:28:01.633Z,30.57
2017-11-08T06:30:29.149Z,30.67
2017-11-08T06:32:56.632Z,31.20
2017-11-08T06:35:24.165Z,28.30
2017-11-08T06:37:52.417Z,29.90
2017-11-08T06:40:19.910Z,30.10
2017-11-08T06:42:47.416Z,30.53
2017-11-08T06:45:14.933Z,37.53
2017-11-08T06:47:42.423Z,32.27
2017-11-08T06:50:09.952Z,31.17
2017-11-08T06:52:38.418Z,32.20
2017-11-08T06:55:05.940Z,31.77
2017-11-08T06:57:33.436Z,31.87
2017-11-08T07:00:00.946Z,34.47
2017-11-08T07:02:28.464Z,33.20
2017-11-08T07:04:55.981Z,31.83
2017-11-08T07:07:23.470Z,30.57
2017-11-08T07:09:51.012Z,34.50
2017-11-08T07:12:19.260Z,34.30
2017-11-08T07:14:46.739Z,34.87
2017-11-08T07:17:14.244Z,32.70
2017-11-08T07:19:41.733Z,33.53
2017-11-08T07:22:09.229Z,33.90
2017-11-08T07:24:36.734Z,38.60
2017-11-08T07:27:04.217Z,36.90
2017-11-08T07:29:32.493Z,35.77
2017-11-08T07:31:59.992Z,38.80
2017-11-08T07:34:27.472Z,34.87
2017-11-08T07:36:54.955Z,36.73
2017-11-08T07:39:22.476Z,40.00
2017-11-08T07:41:50.745Z,40.23
2017-11-08T07:44:18.227Z,40.37
2017-11-08T07:46:45.748Z,39.80
2017-11-08T07:49:13.236Z,39.50
2017-11-08T07:51:40.724Z,39.13
2017-11-08T07:54:12.241Z,38.73
2017-11-08T07:56:39.724Z,39.47
2017-11-08T07:59:07.221Z,42.80
2017-11-08T08:01:34.737Z,37.23
2017-11-08T08:04:02.248Z,41.17
2017-11-08T08:06:29.736Z,41.40
2017-11-08T08:08:57.236Z,37.97
2017-11-08T08:11:24.715Z,41.77
2017-11-08T08:13:59.533Z,41.47
2017-11-08T08:16:27.032Z,40.17
2017-11-08T08:18:55.294Z,38.60
2017-11-08T08:21:23.551Z,37.67
2017-11-08T08:23:51.036Z,40.27
2017-11-08T08:26:20.988Z,37.50
2017-11-08T08:28:48.498Z,37.20
2017-11-08T08:31:15.983Z,37.93
2017-11-08T08:33:43.464Z,35.10
2017-11-08T08:36:10.976Z,36.67
2017-11-08T08:38:38.470Z,36.43
2017-11-08T08:41:06.724Z,35.47
2017-11-08T08:43:34.229Z,32.63
2017-11-08T08:46:02.477Z,33.93
2017-11-08T08:48:29.959Z,34.40
2017-11-08T08:50:57.473Z,34.10
2017-11-08T08:53:24.954Z,35.23
2017-11-08T08:55:52.440Z,34.17
2017-11-08T08:58:19.941Z,33.47
2017-11-08T09:00:47.423Z,34.17
2017-11-08T09:03:14.909Z,35.27
2017-11-08T09:05:43.185Z,32.50
2017-11-08T09:08:10.668Z,33.30
2017-11-08T09:10:38.929Z,30.80
2017-11-08T09:13:06.448Z,31.73
2017-11-08T09:15:33.931Z,31.30
2017-11-08T09:18:01.424Z,31.80
2017-11-08T09:20:28.931Z,30.47
2017-11-08T09:22:57.195Z,33.00
2017-11-08T09:25:26.629Z,30.33
2017-11-08T09:27:54.141Z,28.93
2017-11-08T09:30:21.633Z,32.27
2017-11-08T09:32:49.120Z,31.83
2017-11-08T09:35:16.637Z,31.60
2017-11-08T09:37:49.789Z,32.60
2017-11-08T09:40:17.302Z,30.53
2017-11-08T09:42:47.378Z,30.13
2017-11-08T09:45:14.868Z,31.90
2017-11-08T09:47:42.380Z,31.90
2017-11-08T09:50:10.636Z,35.30
2017-11-08T09:52:44.844Z,30.90
2017-11-08T09:55:12.324Z,32.17
2017-11-08T09:57:39.814Z,36.03
2017-11-08T10:00:07.331Z,29.77
2017-11-08T10:02:34.820Z,31.53
2017-11-08T10:05:02.314Z,31.47
2017-11-08T10:07:29.840Z,31.23
2017-11-08T10:09:57.343Z,29.67
2017-11-08T10:12:24.833Z,31.73
2017-11-08T10:14:52.344Z,31.87
2017-11-08T10:17:19.832Z,30.73
2017-11-08T10:19:47.403Z,29.10
2017-11-08T10:22:14.873Z,32.13
2017-11-08T10:24:43.981Z,31.73
2017-11-08T10:27:11.469Z,29.43
2017-11-08T10:29:38.989Z,29.50
2017-11-08T10:32:07.252Z,28.70
2017-11-08T10:34:34.737Z,30.13
2017-11-08T10:37:03.108Z,30.70
2017-11-08T10:39:30.591Z,28.20
2017-11-08T10:41:58.123Z,29.87
2017-11-08T10:44:25.605Z,29.87
2017-11-08T10:46:53.861Z,32.40
2017-11-08T10:49:21.357Z,32.63
2017-11-08T10:51:48.883Z,33.53
2017-11-08T10:54:17.177Z,33.90
2017-11-08T10:56:44.661Z,33.93
2017-11-08T10:59:17.911Z,35.40
2017-11-08T11:01:46.161Z,34.23
2017-11-08T11:04:13.677Z,34.60
2017-11-08T11:06:41.953Z,33.10
2017-11-08T11:09:10.205Z,34.47
2017-11-08T11:11:37.698Z,34.73
2017-11-08T11:14:11.239Z,34.90
2017-11-08T11:16:39.494Z,36.27
2017-11-08T11:19:12.933Z,34.53
2017-11-08T11:21:41.191Z,34.60
2017-11-08T11:24:12.598Z,34.27
2017-11-08T11:26:41.915Z,34.07
2017-11-08T11:29:10.257Z,39.00
2017-11-08T11:31:37.786Z,37.17
2017-11-08T11:34:05.276Z,37.90
2017-11-08T11:36:32.767Z,37.23
2017-11-08T11:39:00.301Z,37.10
2017-11-08T11:41:27.790Z,35.40
2017-11-08T11:43:55.292Z,37.73
2017-11-08T11:46:22.807Z,33.80
2017-11-08T11:48:54.116Z,38.80
2017-11-08T11:51:25.445Z,39.47
2017-11-08T11:53:52.935Z,35.37
2017-11-08T11:56:20.422Z,40.20
2017-11-08T11:58:47.946Z,36.27
2017-11-08T12:01:15.437Z,38.27
2017-11-08T12:03:42.927Z,36.87
2017-11-08T12:06:10.446Z,37.30
2017-11-08T12:08:38.706Z,40.37
2017-11-08T12:11:06.197Z,39.90
2017-11-08T12:13:34.473Z,40.63
2017-11-08T12:16:01.961Z,41.87
2017-11-08T12:18:30.216Z,41.00
2017-11-08T12:20:57.746Z,41.30
2017-11-08T12:23:25.233Z,40.27
2017-11-08T12:25:52.722Z,43.00
2017-11-08T12:28:20.264Z,42.70
2017-11-08T12:30:47.754Z,41.87
2017-11-08T12:33:15.267Z,43.20
2017-11-08T12:35:47.470Z,42.53
2017-11-08T12:38:14.960Z,45.00
2017-11-08T12:40:42.465Z,46.17
2017-11-08T12:43:09.977Z,46.93
2017-11-08T12:45:41.181Z,46.20
2017-11-08T12:48:08.690Z,42.93
2017-11-08T12:50:36.310Z,48.00
2017-11-08T12:53:03.802Z,45.90
2017-11-08T12:55:31.306Z,45.53
2017-11-08T12:57:58.839Z,49.27
2017-11-08T13:00:26.335Z,42.73
2017-11-08T13:02:53.833Z,44.80
2017-11-08T13:08:24.265Z,46.90
2017-11-08T13:10:57.513Z,44.60
2017-11-08T13:13:25.772Z,42.80
2017-11-08T13:15:53.261Z,46.70
2017-11-08T13:18:21.536Z,43.30
2017-11-08T13:20:49.028Z,48.60
2017-11-08T13:23:17.292Z,42.70
2017-11-08T13:25:44.823Z,47.80
2017-11-08T13:28:12.326Z,47.07
2017-11-08T13:30:39.820Z,43.57
2017-11-08T13:33:08.145Z,43.53
2017-11-08T13:35:35.646Z,49.13
2017-11-08T13:38:03.150Z,48.83
2017-11-08T13:40:31.503Z,48.27
2017-11-08T13:42:59.050Z,48.57
2017-11-08T13:45:28.341Z,48.93
2017-11-08T13:47:55.869Z,50.50
2017-11-08T13:50:23.373Z,49.73
2017-11-08T13:52:50.879Z,51.97
2017-11-08T13:55:18.398Z,47.70
2017-11-08T13:57:45.910Z,52.90
2017-11-08T14:00:13.418Z,53.97
2017-11-08T14:02:40.954Z,48.97
2017-11-08T14:05:08.449Z,48.90
2017-11-08T14:07:35.946Z,52.60
2017-11-08T14:10:03.463Z,49.57
2017-11-08T14:12:30.961Z,54.43
2017-11-08T14:14:58.449Z,50.90
2017-11-08T14:17:25.965Z,52.30
2017-11-08T14:19:54.228Z,49.10
2017-11-08T14:22:21.725Z,53.00
2017-11-08T14:24:50.013Z,55.27
2017-11-08T14:27:18.277Z,52.50
2017-11-08T14:29:45.785Z,57.67
2017-11-08T14:32:14.061Z,52.90
2017-11-08T14:34:42.317Z,53.27
2017-11-08T14:37:09.809Z,52.80
2017-11-08T14:39:38.093Z,53.87
2017-11-08T14:42:11.364Z,52.00
2017-11-08T14:44:38.937Z,55.57
2017-11-08T14:47:07.402Z,51.73
2017-11-08T14:49:34.979Z,53.03
2017-11-08T14:52:06.458Z,51.97
2017-11-08T14:54:33.945Z,55.60
2017-11-08T14:57:01.444Z,58.83
2017-11-08T14:59:29.054Z,53.17
2017-11-08T15:01:56.550Z,56.67
2017-11-08T15:04:24.050Z,55.27
2017-11-08T15:06:51.579Z,54.77
2017-11-08T15:09:19.081Z,55.03
2017-11-08T15:11:46.574Z,57.90
2017-11-08T15:17:22.337Z,55.63
2017-11-08T15:19:49.863Z,55.27
2017-11-08T15:22:17.352Z,57.20
2017-11-08T15:24:44.845Z,57.77
2017-11-08T15:27:12.377Z,58.70
2017-11-08T15:29:40.635Z,52.60
2017-11-08T15:32:08.140Z,57.50
2017-11-08T15:34:36.443Z,53.37
2017-11-08T15:37:03.939Z,55.80
2017-11-08T15:39:31.445Z,55.07
2017-11-08T15:41:58.966Z,52.07
2017-11-08T15:44:26.465Z,56.40
2017-11-08T15:46:54.883Z,53.63
2017-11-08T15:49:22.409Z,51.50
2017-11-08T15:51:49.906Z,57.60
2017-11-08T15:54:17.406Z,51.93
2017-11-08T15:56:45.698Z,51.57
2017-11-08T15:59:13.204Z,55.77
2017-11-08T16:01:41.680Z,61.33
2017-11-08T16:04:12.026Z,56.17
2017-11-08T16:06:39.538Z,60.43
2017-11-08T16:09:09.478Z,59.33
2017-11-08T16:11:37.800Z,57.37
2017-11-08T16:14:06.064Z,59.13
2017-11-08T16:16:33.570Z,54.90
2017-11-08T16:19:03.021Z,56.10
2017-11-08T16:21:31.258Z,52.93
2017-11-08T16:23:59.517Z,58.47
2017-11-08T16:26:27.074Z,56.20
2017-11-08T16:28:54.570Z,60.87
2017-11-08T16:31:22.077Z,85.97
2017-11-08T16:33:49.631Z,51.67
2017-11-08T16:36:17.911Z,50.63
2017-11-08T16:38:46.177Z,55.80
2017-11-08T16:41:13.698Z,51.93
2017-11-08T16:43:41.201Z,54.33
2017-11-08T16:46:08.706Z,54.73
2017-11-08T16:48:37.001Z,56.43
2017-11-08T16:51:04.517Z,51.40
2017-11-08T16:53:32.047Z,50.60
2017-11-08T16:56:00.333Z,65.90
2017-11-08T16:58:28.592Z,55.83
2017-11-08T17:00:56.082Z,55.20
2017-11-08T17:03:23.599Z,50.80
2017-11-08T17:05:51.099Z,55.17
2017-11-08T17:08:18.609Z,54.27
2017-11-08T17:10:46.889Z,49.53
2017-11-08T17:13:15.152Z,52.30
2017-11-08T17:15:42.658Z,57.20
2017-11-08T17:18:10.967Z,54.80
2017-11-08T17:20:38.473Z,50.53
2017-11-08T17:23:05.970Z,53.87
2017-11-08T17:25:33.515Z,52.57
2017-11-08T17:28:01.006Z,49.27
2017-11-08T17:30:28.502Z,55.70
2017-11-08T17:32:56.815Z,54.20
2017-11-08T17:35:24.317Z,53.87
2017-11-08T17:37:51.813Z,53.67
2017-11-08T17:40:19.341Z,51.40
2017-11-08T17:42:46.860Z,52.83
2017-11-08T17:45:15.131Z,54.37
2017-11-08T17:47:42.649Z,53.20
2017-11-08T17:50:10.148Z,55.20
2017-11-08T17:52:37.650Z,55.10
2017-11-08T17:55:05.178Z,52.13
2017-11-08T17:57:32.674Z,54.13
2017-11-08T18:00:00.194Z,53.67
2017-11-08T18:02:27.738Z,50.90
2017-11-08T18:04:55.247Z,50.47
2017-11-08T18:07:22.752Z,53.40
2017-11-08T18:09:51.060Z,54.00
2017-11-08T18:12:18.575Z,50.17
2017-11-08T18:14:46.076Z,52.50
2017-11-08T18:17:13.601Z,49.33
2017-11-08T18:19:41.854Z,51.43
2017-11-08T18:22:10.116Z,51.90
2017-11-08T18:24:37.639Z,54.30
2017-11-08T18:27:05.127Z,52.07
2017-11-08T18:29:32.619Z,52.97
2017-11-08T18:32:00.147Z,54.17
2017-11-08T18:34:27.646Z,54.73
2017-11-08T18:36:55.136Z,50.90
2017-11-08T18:39:23.489Z,52.57
2017-11-08T18:41:51.758Z,50.00
2017-11-08T18:44:19.257Z,51.10
2017-11-08T18:46:46.793Z,50.17
2017-11-08T18:49:14.292Z,47.90
2017-11-08T18:51:42.549Z,54.40
2017-11-08T18:54:10.067Z,51.60
2017-11-08T18:56:37.563Z,51.50
2017-11-08T18:59:05.086Z,49.13
2017-11-08T19:01:33.411Z,48.87
2017-11-08T19:04:00.914Z,47.33
2017-11-08T19:06:28.411Z,47.07
2017-11-08T19:08:55.926Z,51.00
2017-11-08T19:11:23.417Z,49.07
2017-11-08T19:13:50.922Z,44.50
2017-11-08T19:16:18.441Z,46.07
2017-11-08T19:18:45.941Z,46.20
2017-11-08T19:21:13.433Z,45.83
2017-11-08T19:23:41.002Z,48.13
2017-11-08T19:26:08.506Z,43.37
2017-11-08T19:28:36.034Z,44.70
2017-11-08T19:31:03.809Z,41.83
2017-11-08T19:33:31.314Z,45.83
2017-11-08T19:35:59.574Z,40.40
2017-11-08T19:38:27.094Z,46.63
2017-11-08T19:40:54.592Z,42.10
2017-11-08T19:43:22.094Z,41.80
2017-11-08T19:45:49.653Z,39.97
2017-11-08T19:48:17.149Z,44.80
2017-11-08T19:50:45.418Z,41.00
2017-11-08T19:53:12.942Z,39.67
2017-11-08T19:55:40.440Z,41.87
2017-11-08T19:58:07.935Z,41.97
2017-11-08T20:00:35.471Z,40.00
2017-11-08T20:03:03.921Z,37.97
2017-11-08T20:05:32.181Z,40.10
2017-11-08T20:07:59.716Z,38.23
2017-11-08T20:10:27.201Z,38.10
2017-11-08T20:12:54.697Z,37.27
2017-11-08T20:15:22.218Z,39.20
2017-11-08T20:17:49.715Z,40.50
2017-11-08T20:20:17.198Z,35.77
2017-11-08T20:22:44.735Z,37.60
2017-11-08T20:25:12.242Z,37.30
2017-11-08T20:27:39.764Z,35.20
2017-11-08T20:30:07.298Z,40.07
2017-11-08T20:32:34.873Z,34.30
2017-11-08T20:35:02.411Z,36.13
2017-11-08T20:37:29.933Z,40.83
2017-11-08T20:39:58.212Z,34.83
2017-11-08T20:42:26.485Z,35.30
2017-11-08T20:44:54.046Z,34.23
2017-11-08T20:47:21.547Z,35.83
2017-11-08T20:49:49.554Z,33.13
2017-11-08T20:52:17.082Z,28.30
2017-11-08T20:54:44.582Z,32.90
2017-11-08T20:57:12.094Z,35.87
2017-11-08T20:59:39.606Z,34.03
2017-11-08T21:02:07.151Z,32.33
2017-11-08T21:04:34.721Z,34.13
2017-11-08T21:07:02.308Z,34.10
2017-11-08T21:09:29.806Z,33.77
2017-11-08T21:11:58.071Z,33.20
2017-11-08T21:14:25.620Z,34.50
2017-11-08T21:16:53.107Z,35.43
2017-11-08T21:19:20.593Z,32.30
2017-11-08T21:21:48.118Z,32.70
2017-11-08T21:24:15.614Z,33.93
2017-11-08T21:26:43.106Z,32.97
2017-11-08T21:29:10.629Z,31.97
2017-11-08T21:31:38.117Z,32.43
2017-11-08T21:34:05.616Z,31.43
2017-11-08T21:36:33.126Z,31.07
2017-11-08T21:39:00.620Z,33.10
2017-11-08T21:41:28.111Z,36.47
2017-11-08T21:43:55.628Z,32.17
2017-11-08T21:46:23.114Z,32.70
2017-11-08T21:48:51.197Z,30.93
2017-11-08T21:51:18.752Z,33.20
2017-11-08T21:53:46.237Z,30.70
2017-11-08T21:56:13.753Z,29.20
2017-11-08T21:58:41.266Z,27.73
2017-11-08T22:01:09.531Z,29.00
2017-11-08T22:03:37.114Z,28.77
2017-11-08T22:06:05.399Z,26.50
2017-11-08T22:08:33.676Z,24.37
2017-11-08T22:11:01.945Z,28.40
2017-11-08T22:13:29.461Z,24.00
2017-11-08T22:15:57.717Z,27.57
2017-11-08T22:18:25.212Z,25.97
2017-11-08T22:20:53.490Z,27.83
2017-11-08T22:23:20.986Z,26.90
2017-11-08T22:25:48.490Z,28.60
2017-11-08T22:28:16.001Z,29.90
2017-11-08T22:30:43.614Z,29.20
2017-11-08T22:33:11.131Z,30.33
2017-11-08T22:35:38.650Z,26.53
2017-11-08T22:38:06.197Z,28.93
2017-11-08T22:40:33.691Z,28.73
2017-11-08T22:43:01.204Z,28.40
2017-11-08T22:45:29.462Z,29.67
2017-11-08T22:47:56.954Z,27.73
2017-11-08T22:50:24.467Z,30.10
2017-11-08T22:52:52.715Z,29.77
2017-11-08T22:55:20.198Z,28.03
2017-11-08T22:57:47.726Z,32.07
2017-11-08T23:00:15.239Z,32.43
2017-11-08T23:02:42.730Z,30.10
2017-11-08T23:05:10.354Z,30.17
2017-11-08T23:07:37.965Z,30.27
2017-11-08T23:10:05.459Z,32.03
2017-11-08T23:12:33.741Z,29.77
2017-11-08T23:15:01.233Z,31.47
2017-11-08T23:17:28.729Z,34.97
2017-11-08T23:19:56.249Z,31.93
2017-11-08T23:22:23.738Z,31.83
2017-11-08T23:24:52.011Z,31.07
2017-11-08T23:27:20.322Z,34.27
2017-11-08T23:29:48.586Z,33.70
2017-11-08T23:32:16.141Z,35.23
2017-11-08T23:34:43.666Z,41.33
2017-11-08T23:37:11.162Z,35.10
2017-11-08T23:39:38.657Z,35.00
2017-11-08T23:42:06.181Z,39.80
2017-11-08T23:44:33.670Z,35.53
2017-11-08T23:47:01.217Z,41.70
2017-11-08T23:49:28.741Z,41.43
2017-11-08T23:52:02.753Z,43.17
2017-11-08T23:54:30.288Z,42.80
2017-11-08T23:56:57.807Z,41.50
2017-11-08T23:59:29.345Z,45.90
